createdAt,value
2018-11-25T00:00:12.466Z,6.74
2018-11-25T00:02:41.102Z,6.64
2018-11-25T00:05:10.049Z,6.75
2018-11-25T00:07:38.753Z,6.77
2018-11-25T00:10:07.845Z,6.68
2018-11-25T00:12:36.522Z,6.73
2018-11-25T00:15:05.865Z,6.70
2018-11-25T00:17:34.527Z,6.58
2018-11-25T00:20:03.675Z,6.63
2018-11-25T00:22:32.306Z,6.66
2018-11-25T00:25:00.925Z,6.70
2018-11-25T00:27:29.558Z,6.78
2018-11-25T00:29:58.171Z,6.74
2018-11-25T00:32:26.818Z,6.71
2018-11-25T00:34:55.443Z,6.78
2018-11-25T00:37:24.077Z,6.80
2018-11-25T00:39:52.682Z,6.78
2018-11-25T00:42:21.334Z,6.75
2018-11-25T00:44:49.954Z,6.54
2018-11-25T00:47:18.610Z,6.62
2018-11-25T00:49:47.245Z,6.70
2018-11-25T00:52:15.902Z,6.73
2018-11-25T00:54:44.517Z,6.75
2018-11-25T00:57:13.153Z,6.76
2018-11-25T00:59:41.771Z,6.65
2018-11-25T01:02:10.428Z,6.68
2018-11-25T01:04:39.053Z,6.79
2018-11-25T01:07:07.710Z,6.80
2018-11-25T01:09:36.360Z,6.86
2018-11-25T01:12:05.238Z,6.78
2018-11-25T01:14:33.870Z,6.78
2018-11-25T01:17:02.511Z,6.77
2018-11-25T01:19:31.141Z,6.78
2018-11-25T01:21:59.771Z,6.94
2018-11-25T01:24:28.409Z,6.92
2018-11-25T01:26:57.058Z,6.90
2018-11-25T01:29:25.739Z,6.95
2018-11-25T01:31:54.396Z,6.92
2018-11-25T01:34:23.009Z,6.84
2018-11-25T01:36:51.646Z,6.64
2018-11-25T01:39:20.242Z,6.80
2018-11-25T01:41:48.870Z,6.88
2018-11-25T01:44:17.490Z,6.83
2018-11-25T01:46:46.115Z,6.67
2018-11-25T01:49:14.745Z,6.72
2018-11-25T01:51:43.375Z,6.86
2018-11-25T01:54:11.995Z,7.07
2018-11-25T01:56:40.684Z,6.85
2018-11-25T01:59:09.307Z,6.78
2018-11-25T02:01:37.954Z,6.67
2018-11-25T02:04:06.628Z,6.58
2018-11-25T02:06:35.268Z,6.50
2018-11-25T02:09:04.127Z,6.36
2018-11-25T02:11:32.762Z,6.28
2018-11-25T02:14:01.382Z,6.29
2018-11-25T02:16:30.040Z,5.97
2018-11-25T02:18:58.650Z,6.04
2018-11-25T02:21:27.287Z,6.10
2018-11-25T02:23:55.906Z,6.03
2018-11-25T02:26:24.596Z,6.08
2018-11-25T02:28:53.209Z,6.02
2018-11-25T02:31:21.872Z,5.99
2018-11-25T02:33:50.470Z,5.99
2018-11-25T02:36:19.101Z,5.82
2018-11-25T02:38:47.745Z,5.80
2018-11-25T02:41:16.383Z,5.66
2018-11-25T02:43:45.004Z,5.66
2018-11-25T02:46:13.643Z,5.58
2018-11-25T02:48:42.394Z,5.60
2018-11-25T02:51:11.015Z,5.53
2018-11-25T02:53:39.647Z,5.37
2018-11-25T02:56:08.282Z,5.47
2018-11-25T02:58:36.949Z,5.25
2018-11-25T03:01:07.404Z,5.40
2018-11-25T03:03:36.642Z,5.49
2018-11-25T03:06:05.628Z,5.55
2018-11-25T03:08:34.254Z,5.44
2018-11-25T03:11:02.890Z,5.51
2018-11-25T03:13:31.507Z,5.58
2018-11-25T03:16:00.191Z,5.58
2018-11-25T03:18:28.814Z,5.67
2018-11-25T03:20:57.458Z,5.51
2018-11-25T03:23:26.079Z,5.67
2018-11-25T03:25:54.726Z,5.69
2018-11-25T03:28:23.338Z,5.79
2018-11-25T03:30:51.979Z,5.75
2018-11-25T03:33:20.888Z,5.75
2018-11-25T03:35:49.529Z,5.79
2018-11-25T03:38:18.152Z,5.64
2018-11-25T03:40:46.817Z,5.45
2018-11-25T03:43:15.462Z,5.41
2018-11-25T03:45:44.092Z,5.30
2018-11-25T03:48:12.710Z,5.37
2018-11-25T03:50:41.354Z,5.44
2018-11-25T03:53:09.983Z,5.35
2018-11-25T03:55:38.622Z,5.36
2018-11-25T03:58:07.388Z,5.44
2018-11-25T04:00:36.039Z,5.24
2018-11-25T04:03:04.668Z,5.32
2018-11-25T04:05:33.363Z,5.24
2018-11-25T04:08:01.972Z,5.34
2018-11-25T04:10:30.619Z,5.41
2018-11-25T04:12:59.243Z,5.30
2018-11-25T04:15:27.938Z,5.30
2018-11-25T04:17:56.593Z,5.24
2018-11-25T04:20:25.246Z,5.29
2018-11-25T04:22:53.885Z,5.26
2018-11-25T04:25:22.572Z,5.32
2018-11-25T04:27:51.174Z,5.39
2018-11-25T04:30:20.438Z,5.41
2018-11-25T04:32:49.915Z,5.38
2018-11-25T04:35:18.553Z,5.47
2018-11-25T04:37:47.184Z,5.41
2018-11-25T04:40:16.601Z,5.50
2018-11-25T04:42:45.243Z,5.56
2018-11-25T04:45:14.587Z,5.52
2018-11-25T04:47:43.416Z,5.45
2018-11-25T04:50:14.910Z,5.54
2018-11-25T04:52:43.588Z,5.52
2018-11-25T04:55:12.283Z,5.55
2018-11-25T04:57:41.030Z,5.52
2018-11-25T05:00:13.098Z,5.54
2018-11-25T05:02:42.025Z,5.58
2018-11-25T05:05:11.666Z,5.46
2018-11-25T05:07:40.370Z,5.50
2018-11-25T05:10:12.139Z,5.48
2018-11-25T05:12:40.757Z,5.48
2018-11-25T05:15:17.838Z,5.38
2018-11-25T05:17:46.502Z,5.48
2018-11-25T05:20:15.654Z,5.41
2018-11-25T05:22:44.307Z,5.27
2018-11-25T05:25:14.014Z,5.38
2018-11-25T05:27:42.670Z,5.32
2018-11-25T05:30:13.427Z,5.32
2018-11-25T05:32:42.105Z,5.47
2018-11-25T05:35:11.854Z,5.46
2018-11-25T05:37:40.471Z,5.40
2018-11-25T05:40:11.671Z,5.45
2018-11-25T05:42:40.323Z,5.44
2018-11-25T05:45:15.665Z,5.39
2018-11-25T05:47:44.325Z,5.26
2018-11-25T05:50:14.675Z,5.29
2018-11-25T05:52:43.362Z,5.21
2018-11-25T05:55:12.526Z,5.19
2018-11-25T05:57:41.439Z,5.26
2018-11-25T06:00:15.290Z,5.26
2018-11-25T06:02:44.001Z,5.15
2018-11-25T06:05:12.751Z,5.07
2018-11-25T06:07:41.437Z,5.14
2018-11-25T06:10:11.953Z,5.21
2018-11-25T06:12:40.768Z,5.22
2018-11-25T06:15:13.100Z,5.21
2018-11-25T06:17:41.792Z,5.21
2018-11-25T06:20:11.793Z,5.06
2018-11-25T06:22:40.621Z,5.03
2018-11-25T06:25:10.607Z,5.17
2018-11-25T06:27:39.270Z,4.95
2018-11-25T06:30:11.676Z,5.07
2018-11-25T06:32:40.368Z,5.09
2018-11-25T06:35:10.326Z,5.17
2018-11-25T06:37:38.977Z,5.16
2018-11-25T06:40:12.706Z,5.12
2018-11-25T06:42:41.394Z,5.15
2018-11-25T06:45:15.580Z,5.11
2018-11-25T06:47:44.264Z,4.96
2018-11-25T06:50:13.337Z,4.89
2018-11-25T06:52:42.018Z,4.50
2018-11-25T06:55:11.826Z,4.71
2018-11-25T06:57:40.456Z,4.66
2018-11-25T07:00:17.338Z,4.41
2018-11-25T07:02:46.070Z,4.24
2018-11-25T07:05:14.874Z,4.41
2018-11-25T07:07:43.536Z,4.41
2018-11-25T07:10:15.843Z,4.50
2018-11-25T07:12:44.669Z,4.62
2018-11-25T07:15:14.447Z,4.62
2018-11-25T07:17:43.079Z,4.75
2018-11-25T07:20:12.689Z,4.77
2018-11-25T07:22:41.367Z,4.83
2018-11-25T07:25:13.209Z,4.83
2018-11-25T07:27:41.860Z,4.86
2018-11-25T07:30:25.874Z,4.77
2018-11-25T07:32:54.682Z,4.89
2018-11-25T07:35:24.197Z,4.82
2018-11-25T07:37:53.267Z,4.72
2018-11-25T07:40:22.525Z,4.58
2018-11-25T07:42:51.216Z,4.68
2018-11-25T07:45:20.842Z,4.61
2018-11-25T07:47:49.537Z,4.76
2018-11-25T07:50:18.197Z,4.51
2018-11-25T07:52:47.618Z,4.75
2018-11-25T07:55:18.094Z,4.67
2018-11-25T07:57:47.342Z,4.68
2018-11-25T08:00:20.591Z,4.79
2018-11-25T08:02:49.355Z,4.72
2018-11-25T08:05:20.799Z,4.80
2018-11-25T08:07:49.479Z,4.90
2018-11-25T08:10:18.136Z,4.97
2018-11-25T08:12:47.122Z,4.93
2018-11-25T08:15:17.413Z,5.04
2018-11-25T08:17:46.066Z,5.12
2018-11-25T08:20:17.557Z,5.15
2018-11-25T08:22:46.178Z,5.21
2018-11-25T08:25:16.759Z,5.34
2018-11-25T08:27:45.499Z,5.41
2018-11-25T08:30:18.030Z,5.44
2018-11-25T08:32:46.726Z,5.43
2018-11-25T08:35:15.984Z,5.48
2018-11-25T08:37:44.662Z,5.39
2018-11-25T08:40:16.138Z,5.52
2018-11-25T08:42:44.743Z,5.59
2018-11-25T08:45:14.002Z,5.65
2018-11-25T08:47:42.710Z,5.72
2018-11-25T08:50:12.998Z,5.67
2018-11-25T08:52:42.010Z,5.72
2018-11-25T08:55:13.770Z,5.64
2018-11-25T08:57:42.462Z,5.73
2018-11-25T09:00:15.163Z,5.88
2018-11-25T09:02:43.922Z,5.86
2018-11-25T09:05:13.559Z,5.86
2018-11-25T09:07:42.271Z,6.03
2018-11-25T09:10:16.722Z,6.07
2018-11-25T09:12:47.337Z,6.14
2018-11-25T09:15:17.036Z,6.12
2018-11-25T09:17:45.703Z,6.18
2018-11-25T09:20:16.293Z,6.24
2018-11-25T09:22:45.032Z,6.08
2018-11-25T09:25:16.604Z,6.08
2018-11-25T09:27:45.298Z,6.10
2018-11-25T09:30:23.660Z,5.96
2018-11-25T09:32:52.314Z,6.15
2018-11-25T09:35:20.977Z,6.13
2018-11-25T09:37:49.662Z,6.28
2018-11-25T09:40:19.341Z,6.24
2018-11-25T09:42:47.984Z,6.35
2018-11-25T09:45:17.566Z,6.31
2018-11-25T09:47:46.338Z,6.36
2018-11-25T09:50:17.791Z,6.38
2018-11-25T09:52:46.459Z,6.49
2018-11-25T09:55:17.029Z,6.52
2018-11-25T09:57:50.727Z,6.63
2018-11-25T10:00:21.327Z,6.65
2018-11-25T10:02:49.995Z,6.75
2018-11-25T10:05:18.699Z,6.77
2018-11-25T10:07:47.419Z,6.87
2018-11-25T10:10:17.142Z,6.95
2018-11-25T10:12:45.827Z,7.06
2018-11-25T10:15:16.368Z,7.12
2018-11-25T10:17:45.038Z,6.94
2018-11-25T10:20:17.531Z,6.84
2018-11-25T10:22:46.221Z,6.85
2018-11-25T10:25:15.546Z,7.01
2018-11-25T10:27:44.175Z,6.93
2018-11-25T10:30:14.082Z,7.04
2018-11-25T10:32:42.892Z,7.10
2018-11-25T10:35:11.911Z,7.18
2018-11-25T10:37:40.546Z,7.23
2018-11-25T10:40:16.720Z,7.27
2018-11-25T10:42:45.360Z,7.17
2018-11-25T10:45:18.740Z,7.11
2018-11-25T10:47:47.628Z,7.29
2018-11-25T10:50:18.193Z,7.31
2018-11-25T10:52:46.910Z,7.28
2018-11-25T10:55:16.504Z,7.40
2018-11-25T10:57:46.042Z,7.55
2018-11-25T11:00:22.754Z,7.67
2018-11-25T11:02:56.884Z,7.80
2018-11-25T11:05:30.912Z,7.92
2018-11-25T11:07:59.731Z,7.74
2018-11-25T11:10:28.409Z,7.75
2018-11-25T11:12:57.023Z,7.91
2018-11-25T11:15:25.674Z,8.02
2018-11-25T11:17:54.301Z,8.20
2018-11-25T11:20:23.111Z,8.24
2018-11-25T11:22:51.796Z,8.32
2018-11-25T11:25:20.909Z,8.41
2018-11-25T11:27:49.515Z,8.56
2018-11-25T11:30:18.154Z,8.56
2018-11-25T11:32:48.222Z,8.65
2018-11-25T11:35:16.873Z,8.04
2018-11-25T11:37:45.511Z,8.37
2018-11-25T11:40:15.044Z,8.43
2018-11-25T11:42:43.662Z,8.45
2018-11-25T11:45:13.262Z,8.83
2018-11-25T11:47:42.511Z,8.74
2018-11-25T11:50:13.273Z,8.36
2018-11-25T11:52:41.938Z,8.43
2018-11-25T11:55:11.751Z,8.46
2018-11-25T11:57:40.926Z,8.33
2018-11-25T12:00:18.563Z,8.02
2018-11-25T12:02:47.207Z,7.70
2018-11-25T12:05:15.890Z,7.59
2018-11-25T12:07:44.538Z,7.55
2018-11-25T12:10:14.202Z,7.55
2018-11-25T12:12:42.844Z,7.31
2018-11-25T12:15:15.030Z,7.45
2018-11-25T12:17:43.668Z,7.50
2018-11-25T12:20:12.490Z,7.11
2018-11-25T12:22:41.173Z,7.09
2018-11-25T12:25:13.935Z,7.12
2018-11-25T12:27:42.571Z,7.46
2018-11-25T12:30:12.332Z,7.51
2018-11-25T12:32:41.226Z,7.62
2018-11-25T12:35:10.921Z,7.63
2018-11-25T12:37:39.546Z,7.09
2018-11-25T12:40:10.691Z,7.41
2018-11-25T12:42:39.481Z,7.57
2018-11-25T12:45:10.101Z,7.68
2018-11-25T12:47:38.732Z,7.82
2018-11-25T12:50:10.245Z,7.41
2018-11-25T12:52:38.889Z,7.45
2018-11-25T12:55:10.194Z,7.47
2018-11-25T12:57:38.830Z,7.52
2018-11-25T13:00:25.633Z,7.33
2018-11-25T13:02:54.262Z,7.32
2018-11-25T13:05:22.931Z,7.39
2018-11-25T13:07:51.579Z,7.41
2018-11-25T13:10:20.211Z,7.29
2018-11-25T13:12:48.861Z,7.42
2018-11-25T13:15:17.483Z,7.48
2018-11-25T13:17:46.134Z,7.62
2018-11-25T13:20:15.518Z,7.38
2018-11-25T13:22:44.171Z,7.45
2018-11-25T13:25:16.391Z,7.60
2018-11-25T13:27:45.102Z,7.53
2018-11-25T13:30:21.647Z,7.68
2018-11-25T13:32:51.282Z,7.73
2018-11-25T13:35:19.908Z,7.65
2018-11-25T13:37:48.550Z,7.56
2018-11-25T13:40:17.498Z,7.32
2018-11-25T13:42:46.159Z,7.26
2018-11-25T13:45:14.806Z,7.48
2018-11-25T13:47:43.446Z,7.74
2018-11-25T13:50:12.728Z,7.81
2018-11-25T13:52:41.379Z,7.84
2018-11-25T13:55:13.066Z,7.97
2018-11-25T13:57:41.762Z,7.77
2018-11-25T14:00:18.534Z,7.80
2018-11-25T14:02:47.207Z,7.82
2018-11-25T14:05:16.080Z,7.65
2018-11-25T14:07:44.789Z,7.37
2018-11-25T14:10:17.342Z,7.61
2018-11-25T14:12:45.960Z,7.55
2018-11-25T14:15:14.590Z,7.50
2018-11-25T14:17:43.255Z,7.35
2018-11-25T14:20:11.874Z,7.34
2018-11-25T14:22:40.502Z,7.60
2018-11-25T14:25:11.896Z,7.65
2018-11-25T14:27:40.527Z,7.45
2018-11-25T14:30:13.638Z,7.39
2018-11-25T14:32:42.104Z,7.55
2018-11-25T14:35:12.228Z,7.48
2018-11-25T14:37:40.860Z,7.50
2018-11-25T14:40:11.905Z,7.23
2018-11-25T14:42:40.539Z,7.32
2018-11-25T14:45:10.851Z,7.40
2018-11-25T14:47:39.538Z,7.32
2018-11-25T14:50:15.038Z,7.36
2018-11-25T14:52:44.639Z,7.47
2018-11-25T14:55:14.045Z,7.37
2018-11-25T14:57:42.760Z,7.21
2018-11-25T15:00:21.440Z,7.17
2018-11-25T15:02:51.609Z,7.00
2018-11-25T15:05:29.707Z,7.11
2018-11-25T15:07:58.402Z,7.08
2018-11-25T15:10:27.051Z,6.91
2018-11-25T15:12:55.679Z,7.06
2018-11-25T15:15:24.354Z,6.86
2018-11-25T15:17:53.008Z,6.59
2018-11-25T15:20:22.352Z,6.84
2018-11-25T15:22:52.791Z,6.91
2018-11-25T15:25:25.047Z,7.03
2018-11-25T15:27:53.678Z,6.80
2018-11-25T15:30:22.566Z,6.64
2018-11-25T15:32:51.222Z,6.83
2018-11-25T15:35:20.903Z,6.76
2018-11-25T15:37:50.988Z,6.76
2018-11-25T15:40:22.527Z,6.67
2018-11-25T15:42:51.188Z,6.73
2018-11-25T15:45:19.937Z,6.70
2018-11-25T15:47:51.522Z,6.79
2018-11-25T15:50:24.674Z,6.80
2018-11-25T15:52:53.327Z,6.70
2018-11-25T15:55:22.252Z,6.91
2018-11-25T15:57:51.720Z,6.89
2018-11-25T16:00:20.775Z,6.79
2018-11-25T16:02:49.489Z,6.86
2018-11-25T16:05:19.655Z,7.03
2018-11-25T16:07:48.359Z,6.88
2018-11-25T16:10:17.017Z,7.01
2018-11-25T16:12:47.023Z,6.97
2018-11-25T16:15:16.899Z,7.09
2018-11-25T16:17:45.626Z,7.09
2018-11-25T16:20:16.333Z,7.11
2018-11-25T16:22:45.323Z,7.04
2018-11-25T16:25:17.754Z,7.05
2018-11-25T16:27:46.839Z,7.12
2018-11-25T16:30:15.459Z,7.13
2018-11-25T16:32:44.095Z,6.99
2018-11-25T16:35:12.730Z,6.97
2018-11-25T16:37:41.966Z,7.12
2018-11-25T16:40:12.166Z,7.11
2018-11-25T16:42:41.125Z,7.14
2018-11-25T16:45:12.220Z,7.09
2018-11-25T16:47:40.884Z,7.04
2018-11-25T16:50:24.518Z,7.01
2018-11-25T16:52:44.272Z,7.11
2018-11-25T16:55:13.687Z,7.23
2018-11-25T16:57:42.908Z,7.21
2018-11-25T17:00:18.258Z,7.10
2018-11-25T17:02:46.924Z,7.05
2018-11-25T17:05:18.739Z,7.02
2018-11-25T17:07:48.994Z,7.04
2018-11-25T17:10:17.623Z,7.00
2018-11-25T17:12:46.261Z,6.93
2018-11-25T17:15:16.571Z,6.85
2018-11-25T17:17:48.032Z,7.00
2018-11-25T17:20:16.655Z,7.16
2018-11-25T17:22:45.351Z,7.24
2018-11-25T17:25:14.526Z,7.22
2018-11-25T17:27:43.511Z,7.11
2018-11-25T17:30:14.086Z,7.19
2018-11-25T17:32:43.225Z,7.34
2018-11-25T17:35:17.118Z,7.32
2018-11-25T17:37:45.750Z,7.31
2018-11-25T17:40:14.400Z,7.18
2018-11-25T17:42:43.050Z,7.21
2018-11-25T17:45:12.728Z,7.22
2018-11-25T17:47:41.676Z,7.24
2018-11-25T17:50:22.014Z,7.19
2018-11-25T17:52:50.719Z,7.27
2018-11-25T17:55:20.315Z,7.28
2018-11-25T17:57:48.972Z,7.22
2018-11-25T18:00:24.049Z,7.41
2018-11-25T18:02:52.671Z,7.28
2018-11-25T18:05:21.297Z,7.22
2018-11-25T18:07:49.958Z,7.17
2018-11-25T18:10:18.631Z,7.25
2018-11-25T18:12:47.271Z,7.16
2018-11-25T18:15:18.244Z,7.21
2018-11-25T18:17:51.250Z,7.39
2018-11-25T18:20:19.879Z,7.18
2018-11-25T18:22:49.324Z,7.00
2018-11-25T18:25:17.943Z,7.08
2018-11-25T18:27:46.586Z,7.18
2018-11-25T18:30:16.806Z,7.14
2018-11-25T18:32:45.951Z,7.25
2018-11-25T18:35:14.573Z,7.27
2018-11-25T18:37:43.202Z,7.22
2018-11-25T18:40:13.119Z,7.27
2018-11-25T18:42:42.366Z,7.22
2018-11-25T18:45:12.490Z,7.25
2018-11-25T18:47:43.846Z,7.21
2018-11-25T18:50:13.648Z,7.25
2018-11-25T18:52:42.938Z,7.29
2018-11-25T18:55:10.313Z,7.24
2018-11-25T18:57:38.977Z,7.30
2018-11-25T19:00:11.815Z,7.19
2018-11-25T19:02:43.533Z,7.14
2018-11-25T19:05:12.199Z,7.11
2018-11-25T19:07:40.876Z,7.04
2018-11-25T19:10:13.919Z,7.10
2018-11-25T19:12:44.212Z,7.09
2018-11-25T19:15:12.488Z,7.08
2018-11-25T19:17:41.267Z,6.92
2018-11-25T19:20:40.591Z,6.95
2018-11-25T19:23:09.311Z,7.04
2018-11-25T19:25:37.950Z,7.02
2018-11-25T19:28:08.962Z,7.04
2018-11-25T19:30:37.614Z,7.28
2018-11-25T19:33:07.686Z,7.07
2018-11-25T19:35:36.312Z,6.97
2018-11-25T19:38:05.023Z,7.08
2018-11-25T19:40:33.790Z,7.11
2018-11-25T19:43:02.457Z,7.12
2018-11-25T19:45:31.082Z,7.16
2018-11-25T19:47:59.736Z,7.19
2018-11-25T19:50:33.419Z,7.10
2018-11-25T19:53:02.072Z,7.11
2018-11-25T19:55:30.739Z,7.16
2018-11-25T19:57:59.373Z,7.20
2018-11-25T20:00:28.261Z,7.16
2018-11-25T20:02:56.940Z,7.04
2018-11-25T20:05:25.566Z,7.18
2018-11-25T20:07:54.243Z,7.17
2018-11-25T20:10:24.163Z,7.11
2018-11-25T20:12:54.186Z,6.99
2018-11-25T20:15:22.863Z,7.13
2018-11-25T20:17:54.346Z,7.04
2018-11-25T20:20:21.600Z,6.93
2018-11-25T20:22:50.540Z,7.06
2018-11-25T20:25:19.460Z,6.93
2018-11-25T20:27:51.143Z,7.10
2018-11-25T20:30:23.601Z,7.14
2018-11-25T20:32:57.523Z,7.06
2018-11-25T20:35:26.298Z,7.10
2018-11-25T20:38:00.181Z,7.14
2018-11-25T20:40:28.850Z,6.96
2018-11-25T20:42:58.215Z,6.95
2018-11-25T20:45:38.558Z,6.89
2018-11-25T20:48:01.194Z,6.83
2018-11-25T20:50:29.837Z,6.83
2018-11-25T20:53:03.583Z,6.89
2018-11-25T20:55:32.224Z,6.85
2018-11-25T20:58:00.938Z,6.93
2018-11-25T21:00:30.500Z,6.78
2018-11-25T21:02:59.133Z,6.93
2018-11-25T21:05:27.796Z,6.93
2018-11-25T21:07:56.489Z,6.93
2018-11-25T21:10:26.174Z,7.01
2018-11-25T21:12:54.854Z,6.85
2018-11-25T21:15:23.474Z,6.96
2018-11-25T21:17:52.096Z,7.03
2018-11-25T21:20:23.183Z,7.05
2018-11-25T21:22:51.819Z,6.94
2018-11-25T21:25:21.664Z,7.03
2018-11-25T21:27:50.435Z,7.00
2018-11-25T21:30:27.560Z,7.02
2018-11-25T21:32:57.398Z,7.16
2018-11-25T21:35:26.058Z,6.98
2018-11-25T21:37:54.669Z,6.94
2018-11-25T21:40:24.342Z,7.05
2018-11-25T21:42:59.458Z,7.02
2018-11-25T21:45:28.079Z,6.88
2018-11-25T21:47:57.991Z,6.88
2018-11-25T21:50:26.619Z,6.84
2018-11-25T21:52:55.231Z,6.83
2018-11-25T21:55:24.195Z,6.73
2018-11-25T21:57:52.811Z,6.77
2018-11-25T22:00:22.611Z,6.86
2018-11-25T22:02:51.240Z,6.77
2018-11-25T22:05:20.056Z,6.87
2018-11-25T22:07:48.611Z,6.81
2018-11-25T22:10:18.360Z,6.81
2018-11-25T22:12:47.206Z,6.84
2018-11-25T22:15:17.625Z,6.77
2018-11-25T22:17:46.291Z,6.72
2018-11-25T22:20:15.620Z,6.63
2018-11-25T22:22:44.270Z,6.60
2018-11-25T22:25:13.997Z,6.70
2018-11-25T22:27:42.654Z,6.71
2018-11-25T22:30:16.023Z,6.61
2018-11-25T22:32:44.675Z,6.67
2018-11-25T22:35:14.321Z,6.55
2018-11-25T22:37:43.016Z,6.47
2018-11-25T22:40:12.765Z,6.45
2018-11-25T22:42:42.153Z,6.54
2018-11-25T22:45:12.679Z,6.64
2018-11-25T22:47:41.321Z,6.65
2018-11-25T22:50:11.342Z,6.36
2018-11-25T22:52:39.998Z,6.45
2018-11-25T22:55:14.870Z,6.39
2018-11-25T22:57:43.612Z,6.45
2018-11-25T23:00:43.770Z,6.47
2018-11-25T23:03:12.379Z,6.50
2018-11-25T23:05:51.961Z,6.57
2018-11-25T23:08:20.586Z,6.41
2018-11-25T23:10:49.238Z,6.26
2018-11-25T23:13:17.881Z,6.29
2018-11-25T23:15:46.523Z,6.41
2018-11-25T23:18:15.134Z,6.46
2018-11-25T23:20:43.756Z,6.32
2018-11-25T23:23:12.367Z,6.30
2018-11-25T23:25:41.002Z,6.29
2018-11-25T23:28:09.636Z,6.22
2018-11-25T23:30:38.274Z,6.34
2018-11-25T23:33:06.919Z,6.46
2018-11-25T23:35:35.683Z,6.38
2018-11-25T23:38:04.295Z,6.35
2018-11-25T23:40:32.954Z,6.05
2018-11-25T23:43:01.570Z,6.03
2018-11-25T23:45:30.193Z,5.89
2018-11-25T23:47:58.828Z,6.16
2018-11-25T23:50:27.513Z,6.06
2018-11-25T23:52:56.166Z,6.06
2018-11-25T23:55:24.932Z,6.15
2018-11-25T23:57:53.555Z,6.10
